| time (UTC) | temp F | wind direction | speed knots | gust knots | rain 1hr in | rain 24hr in | rain mn in | humidity % | barometer mb |
| 20260906234437 | 97 | 235 | 0.9 | 1.7 | 0.00 | 0.00 | 0.00 | 40 | 1034.8 |
| 20260906233931 | 98 | 222 | 0.0 | 0.9 | 0.00 | 0.00 | 0.00 | 41 | 1034.8 |
| 20260906233431 | 98 | 279 | 0.0 | 0.9 | 0.00 | 0.00 | 0.00 | 40 | 1034.4 |
| 20260906232930 | 98 | 245 | 0.0 | 0.0 | 0.00 | 0.00 | 0.00 | 40 | 1034.4 |
| 20260906232425 | 98 | 207 | 0.9 | 1.7 | 0.00 | 0.00 | 0.00 | 40 | 1034.7 |
| 20260906231920 | 98 | 245 | 0.0 | 0.0 | 0.00 | 0.00 | 0.00 | 39 | 1034.5 |
| 20260906231415 | 99 | 163 | 0.0 | 0.9 | 0.00 | 0.00 | 0.00 | 39 | 1034.5 |
| 20260906230914 | 99 | 257 | 0.0 | 0.9 | 0.00 | 0.00 | 0.00 | 39 | 1034.6 |
| 20260906230409 | 99 | 240 | 0.0 | 0.9 | 0.00 | 0.00 | 0.00 | 39 | 1034.4 |
| 20260906225908 | 99 | 249 | 0.0 | 0.0 | 0.00 | 0.00 | 0.00 | 39 | 1034.5 |
| 20260906225403 | 99 | 210 | 0.9 | 2.6 | 0.00 | 0.00 | 0.00 | 38 | 1034.6 |
| 20260906224859 | 99 | 299 | 0.0 | 0.9 | 0.00 | 0.00 | 0.00 | 37 | 1034.7 |
| 20260906224355 | 99 | 275 | 0.0 | 0.9 | 0.00 | 0.00 | 0.00 | 37 | 1034.5 |
| 20260906223851 | 100 | 191 | 0.0 | 0.9 | 0.00 | 0.00 | 0.00 | 37 | 1034.6 |
| 20260906223347 | 99 | 255 | 0.0 | 1.7 | 0.00 | 0.00 | 0.00 | 37 | 1034.6 |
| 20260906222845 | 99 | 196 | 0.9 | 0.9 | 0.00 | 0.00 | 0.00 | 37 | 1034.7 |
| 20260906222344 | 100 | 220 | 3.5 | 7.0 | 0.00 | 0.00 | 0.00 | 37 | 1034.7 |
| 20260906221842 | 100 | 249 | 0.0 | 1.7 | 0.00 | 0.00 | 0.00 | 37 | 1034.9 |
| 20260906221342 | 100 | 227 | 1.7 | 2.6 | 0.00 | 0.00 | 0.00 | 37 | 1034.9 |
| 20260906220837 | 100 | 319 | 0.0 | 0.9 | 0.00 | 0.00 | 0.00 | 37 | 1034.7 |
| 20260906220332 | 100 | 249 | 0.9 | 5.2 | 0.00 | 0.00 | 0.00 | 38 | 1034.7 |
| 20260906215831 | 100 | 213 | 0.0 | 0.9 | 0.00 | 0.00 | 0.00 | 37 | 1034.7 |
| 20260906215326 | 100 | 203 | 0.9 | 2.6 | 0.00 | 0.00 | 0.00 | 38 | 1034.8 |
| 20260906214824 | 101 | 169 | 1.7 | 2.6 | 0.00 | 0.00 | 0.00 | 38 | 1034.7 |
| 20260906214319 | 101 | 267 | 0.0 | 1.7 | 0.00 | 0.00 | 0.00 | 37 | 1034.6 |
| 20260906213818 | 101 | 297 | 0.0 | 1.7 | 0.00 | 0.00 | 0.00 | 37 | 1035.0 |
| 20260906213313 | 102 | 188 | 0.0 | 1.7 | 0.00 | 0.00 | 0.00 | 38 | 1035.1 |
| 20260906212810 | 102 | 291 | 0.0 | 1.7 | 0.00 | 0.00 | 0.00 | 37 | 1035.2 |
| 20260906212306 | 102 | 254 | 0.0 | 0.9 | 0.00 | 0.00 | 0.00 | 37 | 1035.1 |
| 20260906211806 | 102 | 280 | 0.0 | 0.9 | 0.00 | 0.00 | 0.00 | 37 | 1035.5 |
| 20260906211301 | 102 | 284 | 0.9 | 5.2 | 0.00 | 0.00 | 0.00 | 37 | 1035.2 |
| 20260906210756 | 102 | 184 | 0.9 | 1.7 | 0.00 | 0.00 | 0.00 | 37 | 1035.5 |
| 20260906210255 | 102 | 156 | 0.9 | 1.7 | 0.00 | 0.00 | 0.00 | 37 | 1035.4 |
| 20260906205756 | 102 | 290 | 0.0 | 1.7 | 0.00 | 0.00 | 0.00 | 37 | 1035.3 |
| 20260906205252 | 102 | 292 | 0.0 | 0.9 | 0.00 | 0.00 | 0.00 | 38 | 1035.4 |
| 20260906204748 | 102 | 162 | 0.9 | 2.6 | 0.00 | 0.00 | 0.00 | 38 | 1035.5 |
| 20260906204247 | 102 | 277 | 0.9 | 0.9 | 0.00 | 0.00 | 0.00 | 37 | 1035.6 |
| 20260906203746 | 102 | 284 | 0.0 | 1.7 | 0.00 | 0.00 | 0.00 | 37 | 1035.5 |
| 20260906203242 | 103 | 203 | 0.0 | 1.7 | 0.00 | 0.00 | 0.00 | 37 | 1035.6 |
| 20260906202738 | 103 | 312 | 0.0 | 0.9 | 0.00 | 0.00 | 0.00 | 37 | 1035.6 |
| 20260906202238 | 103 | 164 | 0.0 | 0.9 | 0.00 | 0.00 | 0.00 | 37 | 1035.8 |
| 20260906201733 | 102 | 232 | 0.0 | 2.6 | 0.00 | 0.00 | 0.00 | 37 | 1035.8 |
| 20260906201232 | 101 | 292 | 0.0 | 2.6 | 0.00 | 0.00 | 0.00 | 39 | 1035.9 |
| 20260906200728 | 101 | 176 | 2.6 | 3.5 | 0.00 | 0.00 | 0.00 | 39 | 1035.9 |
| 20260906200224 | 103 | 213 | 2.6 | 5.2 | 0.00 | 0.00 | 0.00 | 37 | 1036.1 |
| 20260906195719 | 102 | 245 | 0.0 | 0.9 | 0.00 | 0.00 | 0.00 | 37 | 1036.3 |
| 20260906195216 | 102 | 289 | 0.0 | 0.9 | 0.00 | 0.00 | 0.00 | 37 | 1036.2 |
| 20260906194711 | 102 | 272 | 0.9 | 2.6 | 0.00 | 0.00 | 0.00 | 39 | 1036.3 |
| 20260906194206 | 101 | 204 | 0.9 | 1.7 | 0.00 | 0.00 | 0.00 | 39 | 1036.3 |
| 20260906193701 | 100 | 230 | 0.0 | 0.9 | 0.00 | 0.00 | 0.00 | 40 | 1036.6 |
| 20260906193156 | 101 | 283 | 0.0 | 0.9 | 0.00 | 0.00 | 0.00 | 39 | 1036.4 |
| 20260906192652 | 101 | 274 | 0.0 | 0.9 | 0.00 | 0.00 | 0.00 | 39 | 1036.3 |
| 20260906192152 | 101 | 265 | 0.0 | 0.9 | 0.00 | 0.00 | 0.00 | 39 | 1036.5 |
| 20260906191646 | 101 | 240 | 5.2 | 7.0 | 0.00 | 0.00 | 0.00 | 39 | 1036.7 |
| 20260906191146 | 101 | 240 | 0.9 | 1.7 | 0.00 | 0.00 | 0.00 | 39 | 1036.7 |
| 20260906190640 | 101 | 256 | 1.7 | 2.6 | 0.00 | 0.00 | 0.00 | 40 | 1036.6 |
| 20260906190135 | 99 | 293 | 0.0 | 0.9 | 0.00 | 0.00 | 0.00 | 42 | 1036.7 |
| 20260906185634 | 99 | 273 | 1.7 | 6.1 | 0.00 | 0.00 | 0.00 | 42 | 1037.1 |
| 20260906185133 | 101 | 113 | 2.6 | 5.2 | 0.00 | 0.00 | 0.00 | 40 | 1037.0 |
| 20260906184627 | 100 | 147 | 2.6 | 3.5 | 0.00 | 0.00 | 0.00 | 40 | 1036.9 |
| 20260906184124 | 99 | 184 | 0.0 | 1.7 | 0.00 | 0.00 | 0.00 | 42 | 1037.1 |
| 20260906183619 | 101 | 144 | 5.2 | 7.0 | 0.00 | 0.00 | 0.00 | 41 | 1037.0 |
| 20260906183115 | 101 | 251 | 0.0 | 1.7 | 0.00 | 0.00 | 0.00 | 40 | 1037.2 |
| 20260906182609 | 100 | 284 | 0.0 | 0.0 | 0.00 | 0.00 | 0.00 | 41 | 1037.4 |
| 20260906182106 | 100 | 267 | 0.0 | 1.7 | 0.00 | 0.00 | 0.00 | 42 | 1037.3 |
| 20260906181601 | 100 | 166 | 1.7 | 3.5 | 0.00 | 0.00 | 0.00 | 41 | 1037.4 |
| 20260906181057 | 100 | 182 | 0.9 | 3.5 | 0.00 | 0.00 | 0.00 | 42 | 1037.5 |
| 20260906180557 | 100 | 204 | 0.9 | 1.7 | 0.00 | 0.00 | 0.00 | 42 | 1037.5 |
| 20260906180056 | 99 | 186 | 1.7 | 1.7 | 0.00 | 0.00 | 0.00 | 43 | 1037.6 |
| 20260906175555 | 100 | 165 | 2.6 | 5.2 | 0.00 | 0.00 | 0.00 | 43 | 1037.6 |
| 20260906175050 | 100 | 266 | 0.0 | 1.7 | 0.00 | 0.00 | 0.00 | 43 | 1037.9 |
| 20260906174548 | 99 | 248 | 0.0 | 0.9 | 0.00 | 0.00 | 0.00 | 44 | 1038.0 |
| 20260906174043 | 99 | 269 | 0.9 | 0.9 | 0.00 | 0.00 | 0.00 | 44 | 1037.8 |
| 20260906173538 | 99 | 284 | 0.9 | 1.7 | 0.00 | 0.00 | 0.00 | 44 | 1038.0 |
| 20260906173035 | 99 | 274 | 0.0 | 0.9 | 0.00 | 0.00 | 0.00 | 43 | 1038.2 |
| 20260906172529 | 98 | 299 | 0.0 | 0.9 | 0.00 | 0.00 | 0.00 | 47 | 1038.2 |
| 20260906172024 | 99 | 282 | 0.9 | 2.6 | 0.00 | 0.00 | 0.00 | 45 | 1038.3 |
| 20260906171519 | 100 | 175 | 0.9 | 0.9 | 0.00 | 0.00 | 0.00 | 45 | 1038.7 |
| 20260906171015 | 100 | 328 | 0.9 | 1.7 | 0.00 | 0.00 | 0.00 | 44 | 1038.4 |
| 20260906170510 | 99 | 244 | 0.0 | 2.6 | 0.00 | 0.00 | 0.00 | 46 | 1038.6 |
| 20260906170008 | 99 | 280 | 0.9 | 2.6 | 0.00 | 0.00 | 0.00 | 46 | 1038.7 |
| 20260906165506 | 98 | 243 | 0.9 | 0.9 | 0.00 | 0.00 | 0.00 | 47 | 1038.8 |
| 20260906165001 | 98 | 223 | 1.7 | 2.6 | 0.00 | 0.00 | 0.00 | 47 | 1038.6 |
| 20260906164459 | 97 | 215 | 0.0 | 2.6 | 0.00 | 0.00 | 0.00 | 48 | 1038.6 |
| 20260906163956 | 98 | 203 | 0.9 | 2.6 | 0.00 | 0.00 | 0.00 | 46 | 1038.7 |
| 20260906163451 | 97 | 258 | 0.0 | 0.9 | 0.00 | 0.00 | 0.00 | 48 | 1038.9 |
| 20260906162950 | 96 | 252 | 0.9 | 1.7 | 0.00 | 0.00 | 0.00 | 48 | 1039.0 |
| 20260906162448 | 96 | 316 | 0.9 | 1.7 | 0.00 | 0.00 | 0.00 | 48 | 1038.9 |
| 20260906161943 | 96 | 142 | 0.9 | 3.5 | 0.00 | 0.00 | 0.00 | 50 | 1038.8 |
| 20260906161438 | 96 | 179 | 0.9 | 1.7 | 0.00 | 0.00 | 0.00 | 50 | 1038.8 |
| 20260906160937 | 95 | 213 | 0.9 | 0.9 | 0.00 | 0.00 | 0.00 | 51 | 1038.6 |
| 20260906160436 | 96 | 266 | 0.0 | 1.7 | 0.00 | 0.00 | 0.00 | 53 | 1038.7 |
| 20260906155935 | 95 | 224 | 0.0 | 0.9 | 0.00 | 0.00 | 0.00 | 53 | 1038.7 |
| 20260906155433 | 95 | 271 | 0.0 | 1.7 | 0.00 | 0.00 | 0.00 | 53 | 1038.6 |
| 20260906154931 | 95 | 184 | 1.7 | 2.6 | 0.00 | 0.00 | 0.00 | 53 | 1038.8 |
| 20260906154431 | 94 | 233 | 0.9 | 0.9 | 0.00 | 0.00 | 0.00 | 54 | 1038.8 |
| 20260906153929 | 94 | 158 | 1.7 | 1.7 | 0.00 | 0.00 | 0.00 | 55 | 1038.8 |
| 20260906153428 | 93 | 225 | 0.9 | 0.9 | 0.00 | 0.00 | 0.00 | 57 | 1038.9 |
| 20260906152924 | 92 | 183 | 0.9 | 0.9 | 0.00 | 0.00 | 0.00 | 57 | 1038.7 |
| 20260906152424 | 93 | 281 | 0.9 | 2.6 | 0.00 | 0.00 | 0.00 | 57 | 1038.6 |
| 20260906151923 | 92 | 206 | 0.9 | 0.9 | 0.00 | 0.00 | 0.00 | 57 | 1038.6 |
| 20260906151419 | 90 | 292 | 0.0 | 0.0 | 0.00 | 0.00 | 0.00 | 60 | 1038.7 |
| 20260906150914 | 89 | 239 | 0.0 | 1.7 | 0.00 | 0.00 | 0.00 | 62 | 1038.5 |
| 20260906150409 | 89 | 203 | 0.9 | 1.7 | 0.00 | 0.00 | 0.00 | 62 | 1038.6 |
| 20260906145908 | 89 | 254 | 0.0 | 2.6 | 0.00 | 0.00 | 0.00 | 63 | 1038.6 |
| 20260906145407 | 88 | 211 | 1.7 | 2.6 | 0.00 | 0.00 | 0.00 | 64 | 1038.7 |
| 20260906144902 | 88 | 200 | 0.9 | 1.7 | 0.00 | 0.00 | 0.00 | 64 | 1038.7 |
| 20260906144357 | 89 | 199 | 0.9 | 1.7 | 0.00 | 0.00 | 0.00 | 64 | 1038.5 |
| 20260906143853 | 88 | 252 | 0.0 | 0.0 | 0.00 | 0.00 | 0.00 | 65 | 1038.7 |
| 20260906143348 | 87 | 164 | 0.9 | 1.7 | 0.00 | 0.00 | 0.00 | 66 | 1038.5 |
| 20260906142844 | 87 | 174 | 1.7 | 1.7 | 0.00 | 0.00 | 0.00 | 66 | 1038.5 |
| 20260906142338 | 87 | 198 | 0.9 | 2.6 | 0.00 | 0.00 | 0.00 | 67 | 1038.5 |
| 20260906141838 | 87 | 201 | 0.9 | 1.7 | 0.00 | 0.00 | 0.00 | 68 | 1038.4 |
| 20260906141333 | 87 | 180 | 0.9 | 1.7 | 0.00 | 0.00 | 0.00 | 66 | 1038.3 |
| 20260906140831 | 87 | 209 | 0.0 | 0.9 | 0.00 | 0.00 | 0.00 | 67 | 1038.6 |
| 20260906140322 | 86 | 244 | 0.0 | 0.9 | 0.00 | 0.00 | 0.00 | 69 | 1038.6 |
| 20260906135819 | 85 | 206 | 0.9 | 0.9 | 0.00 | 0.00 | 0.00 | 70 | 1038.5 |
| 20260906135314 | 84 | 222 | 0.0 | 0.0 | 0.00 | 0.00 | 0.00 | 73 | 1038.4 |
| 20260906134809 | 83 | 183 | 0.9 | 1.7 | 0.00 | 0.00 | 0.00 | 74 | 1038.2 |
| 20260906134304 | 81 | 208 | 0.9 | 0.9 | 0.00 | 0.00 | 0.00 | 77 | 1038.5 |
| 20260906133800 | 81 | 207 | 0.9 | 1.7 | 0.00 | 0.00 | 0.00 | 79 | 1038.3 |
| 20260906133255 | 80 | 226 | 0.0 | 0.9 | 0.00 | 0.00 | 0.00 | 80 | 1038.5 |
| 20260906132751 | 80 | 247 | 0.0 | 0.0 | 0.00 | 0.00 | 0.00 | 81 | 1038.6 |
| 20260906132246 | 80 | 232 | 0.0 | 0.0 | 0.00 | 0.00 | 0.00 | 82 | 1038.3 |
| 20260906131742 | 79 | 204 | 0.9 | 1.7 | 0.00 | 0.00 | 0.00 | 83 | 1038.2 |
| 20260906131236 | 79 | 248 | 0.0 | 0.0 | 0.00 | 0.00 | 0.00 | 84 | 1038.2 |
| 20260906130732 | 78 | 238 | 0.0 | 0.0 | 0.00 | 0.00 | 0.00 | 85 | 1038.3 |
| 20260906130227 | 78 | 239 | 0.0 | 0.0 | 0.00 | 0.00 | 0.00 | 86 | 1038.3 |
| 20260906125725 | 77 | 249 | 0.0 | 0.0 | 0.00 | 0.00 | 0.00 | 87 | 1038.4 |
| 20260906125224 | 77 | 249 | 0.0 | 0.0 | 0.00 | 0.00 | 0.00 | 87 | 1038.1 |
| 20260906124723 | 77 | 249 | 0.0 | 0.0 | 0.00 | 0.00 | 0.00 | 87 | 1038.1 |
| 20260906124219 | 76 | 249 | 0.0 | 0.0 | 0.00 | 0.00 | 0.00 | 87 | 1038.0 |
| 20260906123718 | 76 | 249 | 0.0 | 0.0 | 0.00 | 0.00 | 0.00 | 87 | 1038.1 |
| 20260906123214 | 76 | 249 | 0.0 | 0.0 | 0.00 | 0.00 | 0.00 | 87 | 1038.2 |
| 20260906122713 | 76 | 249 | 0.0 | 0.0 | 0.00 | 0.00 | 0.00 | 86 | 1038.0 |
| 20260906122208 | 76 | 249 | 0.0 | 0.0 | 0.00 | 0.00 | 0.00 | 86 | 1038.0 |
| 20260906121705 | 76 | 249 | 0.0 | 0.0 | 0.00 | 0.00 | 0.00 | 86 | 1037.8 |
| 20260906121200 | 76 | 249 | 0.0 | 0.0 | 0.00 | 0.00 | 0.00 | 86 | 1038.0 |
| 20260906120656 | 76 | 249 | 0.0 | 0.0 | 0.00 | 0.00 | 0.00 | 85 | 1037.8 |
| 20260906120154 | 76 | 249 | 0.0 | 0.0 | 0.00 | 0.00 | 0.00 | 85 | 1037.9 |
| 20260906115654 | 77 | 249 | 0.0 | 0.0 | 0.00 | 0.00 | 0.00 | 84 | 1038.1 |
| 20260906115149 | 77 | 249 | 0.0 | 0.0 | 0.00 | 0.00 | 0.00 | 84 | 1037.6 |
| 20260906114648 | 77 | 249 | 0.0 | 0.0 | 0.00 | 0.00 | 0.00 | 84 | 1037.5 |
| 20260906114143 | 77 | 249 | 0.0 | 0.0 | 0.00 | 0.00 | 0.00 | 84 | 1037.6 |
| 20260906113637 | 77 | 249 | 0.0 | 0.0 | 0.00 | 0.00 | 0.00 | 84 | 1037.6 |
| 20260906113132 | 77 | 249 | 0.0 | 0.0 | 0.00 | 0.00 | 0.00 | 84 | 1037.4 |
| 20260906112631 | 77 | 249 | 0.0 | 0.0 | 0.00 | 0.00 | 0.00 | 83 | 1037.5 |
| 20260906112129 | 77 | 249 | 0.0 | 0.0 | 0.00 | 0.00 | 0.00 | 83 | 1037.4 |
| 20260906111627 | 77 | 249 | 0.0 | 0.0 | 0.00 | 0.00 | 0.00 | 83 | 1037.5 |
| 20260906111117 | 77 | 249 | 0.0 | 0.0 | 0.00 | 0.00 | 0.00 | 83 | 1037.4 |
| 20260906110612 | 77 | 249 | 0.0 | 0.0 | 0.00 | 0.00 | 0.00 | 83 | 1037.2 |
| 20260906110112 | 77 | 249 | 0.0 | 0.0 | 0.00 | 0.00 | 0.00 | 83 | 1037.3 |
| 20260906105607 | 77 | 249 | 0.0 | 0.0 | 0.00 | 0.00 | 0.00 | 83 | 1037.4 |
| 20260906105103 | 77 | 249 | 0.0 | 0.0 | 0.00 | 0.00 | 0.00 | 83 | 1037.2 |
| 20260906104602 | 77 | 249 | 0.0 | 0.0 | 0.00 | 0.00 | 0.00 | 83 | 1037.4 |
| 20260906104055 | 77 | 249 | 0.0 | 0.0 | 0.00 | 0.00 | 0.00 | 82 | 1037.3 |
| 20260906103554 | 77 | 249 | 0.0 | 0.0 | 0.00 | 0.00 | 0.00 | 82 | 1037.3 |
| 20260906103050 | 77 | 249 | 0.0 | 0.0 | 0.00 | 0.00 | 0.00 | 82 | 1037.2 |
| 20260906102549 | 78 | 249 | 0.0 | 0.0 | 0.00 | 0.00 | 0.00 | 82 | 1037.3 |
| 20260906102044 | 78 | 249 | 0.0 | 0.0 | 0.00 | 0.00 | 0.00 | 82 | 1037.1 |
| 20260906101539 | 78 | 249 | 0.0 | 0.0 | 0.00 | 0.00 | 0.00 | 81 | 1037.0 |
| 20260906101033 | 78 | 249 | 0.0 | 0.0 | 0.00 | 0.00 | 0.00 | 81 | 1036.9 |
| 20260906100530 | 78 | 249 | 0.0 | 0.0 | 0.00 | 0.00 | 0.00 | 81 | 1037.1 |
| 20260906100029 | 78 | 249 | 0.0 | 0.0 | 0.00 | 0.00 | 0.00 | 81 | 1036.9 |
| 20260906095524 | 78 | 249 | 0.0 | 0.0 | 0.00 | 0.00 | 0.00 | 80 | 1036.7 |
| 20260906095020 | 78 | 249 | 0.0 | 0.0 | 0.00 | 0.00 | 0.00 | 80 | 1036.7 |
| 20260906094518 | 78 | 249 | 0.0 | 0.0 | 0.00 | 0.00 | 0.00 | 80 | 1036.6 |
| 20260906094014 | 78 | 249 | 0.0 | 0.0 | 0.00 | 0.00 | 0.00 | 80 | 1036.7 |
| 20260906093510 | 79 | 249 | 0.0 | 0.0 | 0.00 | 0.00 | 0.00 | 80 | 1036.5 |
| 20260906093011 | 79 | 249 | 0.0 | 0.0 | 0.00 | 0.00 | 0.00 | 79 | 1036.5 |
| 20260906092505 | 79 | 249 | 0.0 | 0.0 | 0.00 | 0.00 | 0.00 | 79 | 1036.4 |
| 20260906092001 | 79 | 249 | 0.0 | 0.0 | 0.00 | 0.00 | 0.00 | 78 | 1036.4 |
| 20260906091456 | 79 | 249 | 0.0 | 0.0 | 0.00 | 0.00 | 0.00 | 78 | 1036.6 |
| 20260906090953 | 80 | 249 | 0.0 | 0.0 | 0.00 | 0.00 | 0.00 | 77 | 1036.6 |
| 20260906090448 | 80 | 249 | 0.0 | 0.0 | 0.00 | 0.00 | 0.00 | 77 | 1036.5 |
| 20260906085947 | 80 | 242 | 0.0 | 0.0 | 0.00 | 0.00 | 0.00 | 76 | 1036.2 |
| 20260906085447 | 80 | 231 | 0.0 | 0.9 | 0.00 | 0.00 | 0.00 | 76 | 1036.5 |
| 20260906084946 | 81 | 245 | 0.0 | 0.0 | 0.00 | 0.00 | 0.00 | 75 | 1036.3 |
| 20260906084441 | 81 | 245 | 0.0 | 0.0 | 0.00 | 0.00 | 0.00 | 75 | 1036.3 |
| 20260906083940 | 81 | 235 | 0.0 | 0.0 | 0.00 | 0.00 | 0.00 | 75 | 1036.4 |
| 20260906083436 | 81 | 242 | 0.0 | 0.9 | 0.00 | 0.00 | 0.00 | 74 | 1036.3 |
| 20260906082935 | 81 | 207 | 0.0 | 0.9 | 0.00 | 0.00 | 0.00 | 74 | 1036.5 |
| 20260906082430 | 81 | 229 | 0.0 | 0.9 | 0.00 | 0.00 | 0.00 | 74 | 1036.4 |
| 20260906081926 | 81 | 139 | 1.7 | 2.6 | 0.00 | 0.00 | 0.00 | 74 | 1036.4 |
| 20260906081421 | 82 | 226 | 0.0 | 0.9 | 0.00 | 0.00 | 0.00 | 74 | 1036.2 |
| 20260906080917 | 82 | 246 | 0.9 | 1.7 | 0.00 | 0.00 | 0.00 | 73 | 1036.3 |
| 20260906080414 | 82 | 228 | 0.0 | 0.9 | 0.00 | 0.00 | 0.00 | 73 | 1036.4 |
| 20260906075913 | 82 | 229 | 0.9 | 1.7 | 0.00 | 0.00 | 0.00 | 73 | 1036.5 |
| 20260906075408 | 82 | 186 | 0.9 | 1.7 | 0.00 | 0.00 | 0.00 | 73 | 1036.6 |
| 20260906074903 | 82 | 240 | 0.9 | 1.7 | 0.00 | 0.00 | 0.00 | 73 | 1036.5 |
| 20260906074402 | 82 | 209 | 0.9 | 1.7 | 0.00 | 0.00 | 0.00 | 73 | 1036.6 |
| 20260906073901 | 82 | 236 | 0.0 | 0.9 | 0.00 | 0.00 | 0.00 | 72 | 1036.5 |
| 20260906073356 | 82 | 218 | 1.7 | 1.7 | 0.00 | 0.00 | 0.00 | 72 | 1036.6 |
| 20260906072853 | 82 | 194 | 1.7 | 3.5 | 0.00 | 0.00 | 0.00 | 72 | 1036.4 |
| 20260906072348 | 83 | 179 | 1.7 | 2.6 | 0.00 | 0.00 | 0.00 | 72 | 1036.3 |
| 20260906071844 | 83 | 212 | 0.9 | 3.5 | 0.00 | 0.00 | 0.00 | 72 | 1036.4 |
| 20260906071339 | 83 | 231 | 1.7 | 2.6 | 0.00 | 0.00 | 0.00 | 72 | 1036.7 |
| 20260906070836 | 83 | 239 | 1.7 | 1.7 | 0.00 | 0.00 | 0.00 | 72 | 1036.7 |
| 20260906070331 | 83 | 197 | 0.9 | 2.6 | 0.00 | 0.00 | 0.00 | 72 | 1036.5 |
| 20260906065827 | 83 | 235 | 0.9 | 1.7 | 0.00 | 0.00 | 0.00 | 71 | 1036.9 |
| 20260906065321 | 83 | 135 | 2.6 | 3.5 | 0.00 | 0.00 | 0.00 | 71 | 1036.9 |
| 20260906064817 | 83 | 203 | 1.7 | 3.5 | 0.00 | 0.00 | 0.00 | 71 | 1036.7 |
| 20260906064313 | 83 | 162 | 0.9 | 1.7 | 0.00 | 0.00 | 0.00 | 71 | 1037.1 |
| 20260906063813 | 84 | 227 | 0.9 | 3.5 | 0.00 | 0.00 | 0.00 | 71 | 1037.2 |
| 20260906063308 | 84 | 207 | 1.7 | 2.6 | 0.00 | 0.00 | 0.00 | 71 | 1037.0 |
| 20260906062803 | 84 | 231 | 0.0 | 1.7 | 0.00 | 0.00 | 0.00 | 71 | 1037.2 |
| 20260906062306 | 84 | 216 | 0.9 | 1.7 | 0.00 | 0.00 | 0.00 | 70 | 1037.1 |
| 20260906061758 | 84 | 229 | 0.9 | 1.7 | 0.00 | 0.00 | 0.00 | 70 | 1037.3 |
| 20260906061255 | 84 | 196 | 0.9 | 1.7 | 0.00 | 0.00 | 0.00 | 70 | 1037.3 |
| 20260906060755 | 84 | 174 | 1.7 | 2.6 | 0.00 | 0.00 | 0.00 | 70 | 1037.4 |
| 20260906060253 | 84 | 193 | 1.7 | 2.6 | 0.00 | 0.00 | 0.00 | 70 | 1037.2 |
| 20260906055748 | 85 | 169 | 1.7 | 2.6 | 0.00 | 0.00 | 0.00 | 69 | 1037.1 |
| 20260906055243 | 85 | 179 | 1.7 | 1.7 | 0.00 | 0.00 | 0.00 | 69 | 1037.1 |
| 20260906054738 | 85 | 223 | 0.9 | 2.6 | 0.00 | 0.00 | 0.00 | 69 | 1037.1 |
| 20260906054234 | 85 | 211 | 0.0 | 0.9 | 0.00 | 0.00 | 0.00 | 69 | 1037.1 |
| 20260906053730 | 85 | 212 | 0.9 | 1.7 | 0.00 | 0.00 | 0.00 | 69 | 1037.1 |
| 20260906053226 | 85 | 179 | 1.7 | 1.7 | 0.00 | 0.00 | 0.00 | 69 | 1037.0 |
| 20260906052721 | 85 | 172 | 0.9 | 2.6 | 0.00 | 0.00 | 0.00 | 69 | 1036.9 |
| 20260906052217 | 85 | 222 | 0.9 | 1.7 | 0.00 | 0.00 | 0.00 | 69 | 1036.9 |
| 20260906051714 | 85 | 208 | 0.9 | 0.9 | 0.00 | 0.00 | 0.00 | 69 | 1036.9 |
| 20260906051213 | 85 | 220 | 0.9 | 1.7 | 0.00 | 0.00 | 0.00 | 69 | 1036.9 |
| 20260906050708 | 85 | 202 | 0.9 | 2.6 | 0.00 | 0.00 | 0.00 | 68 | 1036.9 |
| 20260906050203 | 85 | 177 | 1.7 | 1.7 | 0.00 | 0.00 | 0.00 | 68 | 1036.7 |
| 20260906045701 | 86 | 172 | 1.7 | 1.7 | 0.00 | 0.00 | 0.00 | 68 | 1037.0 |
| 20260906045157 | 86 | 187 | 0.0 | 1.7 | 0.00 | 0.00 | 0.00 | 68 | 1036.9 |
| 20260906044653 | 86 | 225 | 0.9 | 1.7 | 0.00 | 0.00 | 0.00 | 67 | 1037.1 |
| 20260906044148 | 86 | 133 | 1.7 | 2.6 | 0.00 | 0.00 | 0.00 | 67 | 1036.9 |
| 20260906043644 | 86 | 184 | 0.9 | 1.7 | 0.00 | 0.00 | 0.00 | 67 | 1036.9 |
| 20260906043140 | 86 | 199 | 0.9 | 3.5 | 0.00 | 0.00 | 0.00 | 66 | 1037.0 |
| 20260906042639 | 86 | 214 | 1.7 | 2.6 | 0.00 | 0.00 | 0.00 | 66 | 1037.0 |
| 20260906042133 | 86 | 247 | 0.0 | 0.9 | 0.00 | 0.00 | 0.00 | 65 | 1037.0 |
| 20260906041630 | 86 | 193 | 0.9 | 1.7 | 0.00 | 0.00 | 0.00 | 65 | 1036.7 |
| 20260906041129 | 86 | 227 | 0.0 | 1.7 | 0.00 | 0.00 | 0.00 | 65 | 1037.0 |
| 20260906040625 | 86 | 234 | 0.0 | 0.9 | 0.00 | 0.00 | 0.00 | 65 | 1036.9 |
| 20260906040121 | 86 | 229 | 0.9 | 1.7 | 0.00 | 0.00 | 0.00 | 64 | 1036.6 |
| 20260906035616 | 87 | 234 | 0.9 | 0.9 | 0.00 | 0.00 | 0.00 | 64 | 1036.7 |
| 20260906035112 | 87 | 207 | 0.9 | 1.7 | 0.00 | 0.00 | 0.00 | 64 | 1036.6 |
| 20260906034611 | 87 | 235 | 0.0 | 1.7 | 0.00 | 0.00 | 0.00 | 63 | 1036.7 |
| 20260906034106 | 87 | 203 | 1.7 | 1.7 | 0.00 | 0.00 | 0.00 | 63 | 1037.1 |
| 20260906033602 | 87 | 189 | 0.9 | 2.6 | 0.00 | 0.00 | 0.00 | 63 | 1036.9 |
| 20260906033057 | 87 | 200 | 0.9 | 1.7 | 0.00 | 0.00 | 0.00 | 63 | 1037.0 |
| 20260906032554 | 87 | 154 | 1.7 | 2.6 | 0.00 | 0.00 | 0.00 | 63 | 1037.0 |
| 20260906032053 | 87 | 241 | 0.9 | 2.6 | 0.00 | 0.00 | 0.00 | 63 | 1036.9 |
| 20260906031549 | 87 | 229 | 0.0 | 1.7 | 0.00 | 0.00 | 0.00 | 62 | 1037.1 |
| 20260906031044 | 87 | 163 | 1.7 | 2.6 | 0.00 | 0.00 | 0.00 | 62 | 1037.1 |
| 20260906030543 | 87 | 147 | 3.5 | 5.2 | 0.00 | 0.00 | 0.00 | 62 | 1036.9 |
| 20260906030038 | 87 | 167 | 1.7 | 1.7 | 0.00 | 0.00 | 0.00 | 61 | 1036.7 |
| 20260906025538 | 87 | 221 | 0.9 | 2.6 | 0.00 | 0.00 | 0.00 | 61 | 1036.7 |
| 20260906025036 | 87 | 246 | 0.9 | 2.6 | 0.00 | 0.00 | 0.00 | 61 | 1036.7 |
| 20260906024531 | 87 | 162 | 1.7 | 3.5 | 0.00 | 0.00 | 0.00 | 61 | 1036.7 |
| 20260906024031 | 88 | 159 | 2.6 | 5.2 | 0.00 | 0.00 | 0.00 | 61 | 1036.9 |
| 20260906023527 | 88 | 210 | 0.9 | 3.5 | 0.00 | 0.00 | 0.00 | 61 | 1036.7 |
| 20260906023022 | 88 | 207 | 1.7 | 2.6 | 0.00 | 0.00 | 0.00 | 61 | 1036.5 |
| 20260906022517 | 88 | 148 | 2.6 | 5.2 | 0.00 | 0.00 | 0.00 | 60 | 1036.2 |
| 20260906022013 | 88 | 176 | 1.7 | 2.6 | 0.00 | 0.00 | 0.00 | 60 | 1036.2 |
| 20260906021509 | 88 | 236 | 0.0 | 1.7 | 0.00 | 0.00 | 0.00 | 60 | 1036.2 |
| 20260906021008 | 88 | 250 | 1.7 | 6.1 | 0.00 | 0.00 | 0.00 | 59 | 1036.0 |
| 20260906020507 | 88 | 231 | 0.9 | 3.5 | 0.00 | 0.00 | 0.00 | 59 | 1036.1 |
| 20260906020007 | 89 | 129 | 1.7 | 5.2 | 0.00 | 0.00 | 0.00 | 59 | 1036.0 |
| 20260906015506 | 89 | 213 | 1.7 | 2.6 | 0.00 | 0.00 | 0.00 | 59 | 1035.8 |
| 20260906015007 | 89 | 112 | 2.6 | 6.1 | 0.00 | 0.00 | 0.00 | 59 | 1035.8 |
| 20260906014501 | 89 | 168 | 2.6 | 3.5 | 0.00 | 0.00 | 0.00 | 59 | 1035.8 |
| 20260906013957 | 89 | 249 | 0.9 | 7.8 | 0.00 | 0.00 | 0.00 | 58 | 1035.7 |
| 20260906013452 | 89 | 200 | 2.6 | 3.5 | 0.00 | 0.00 | 0.00 | 58 | 1035.5 |
| 20260906012949 | 89 | 129 | 4.3 | 6.1 | 0.00 | 0.00 | 0.00 | 58 | 1035.4 |
| 20260906012449 | 89 | 232 | 1.7 | 5.2 | 0.00 | 0.00 | 0.00 | 57 | 1035.5 |
| 20260906011948 | 90 | 155 | 0.9 | 1.7 | 0.00 | 0.00 | 0.00 | 57 | 1035.3 |
| 20260906011444 | 90 | 267 | 3.5 | 6.1 | 0.00 | 0.00 | 0.00 | 56 | 1035.3 |
| 20260906010939 | 91 | 135 | 0.9 | 3.5 | 0.00 | 0.00 | 0.00 | 55 | 1035.2 |
| 20260906010434 | 91 | 181 | 2.6 | 5.2 | 0.00 | 0.00 | 0.00 | 54 | 1035.1 |
| 20260906005930 | 91 | 167 | 2.6 | 2.6 | 0.00 | 0.00 | 0.00 | 54 | 1035.1 |
| 20260906005430 | 91 | 221 | 0.0 | 0.9 | 0.00 | 0.00 | 0.00 | 53 | 1034.9 |
| 20260906004928 | 92 | 24 | 0.9 | 6.1 | 0.00 | 0.00 | 0.00 | 52 | 1034.9 |
| 20260906004422 | 93 | 152 | 1.7 | 3.5 | 0.00 | 0.00 | 0.00 | 51 | 1035.1 |
| 20260906003918 | 94 | 259 | 0.9 | 1.7 | 0.00 | 0.00 | 0.00 | 50 | 1035.0 |
| 20260906003413 | 95 | 52 | 0.0 | 2.6 | 0.00 | 0.00 | 0.00 | 47 | 1034.9 |
| 20260906002908 | 95 | 261 | 0.9 | 1.7 | 0.00 | 0.00 | 0.00 | 43 | 1034.8 |
| 20260906002403 | 96 | 199 | 0.9 | 0.9 | 0.00 | 0.00 | 0.00 | 42 | 1034.7 |
| 20260906001858 | 96 | 296 | 0.9 | 1.7 | 0.00 | 0.00 | 0.00 | 42 | 1034.7 |
| 20260906001354 | 96 | 246 | 0.0 | 1.7 | 0.00 | 0.00 | 0.00 | 42 | 1034.6 |
| 20260906000854 | 96 | 227 | 0.0 | 0.9 | 0.00 | 0.00 | 0.00 | 41 | 1034.6 |
| 20260906000355 | 96 | 326 | 0.9 | 0.9 | 0.00 | 0.00 | 0.00 | 41 | 1034.7 |
| 20260905235848 | 97 | 316 | 0.0 | 0.9 | 0.00 | 0.00 | 0.00 | 41 | 1034.6 |
| 20260905235343 | 97 | 155 | 0.0 | 1.7 | 0.00 | 0.00 | 0.00 | 40 | 1034.4 |
| 20260905234838 | 97 | 225 | 0.9 | 1.7 | 0.00 | 0.00 | 0.00 | 40 | 1034.6 |